Santa Marta, Brazil
Current Conditions -  °F | °C
As of 6:00 PM on Sunday 25 Jan 2015 (Local Time) from SBCM Reporting Station
Few Clouds Few Clouds  
Wind Chill: 90°   Ceiling: Unl
Heat Index: 93°   Visibility: 6mi
Dew Point: 68°   Wind: 3mph
Humidity: 49%   Direction: 30°NNE
Pressure: 29.8"   Gusts: NA
Location:  28.6°S, 48.82°W
Report Text: SBCM 252000Z 03003KT 9999 FEW040 FEW045TCU 32/20 Q1009
Loading
Personal Weather Stations






























Interactive Weather Map New forecast layout! Learn more

10-Day Weather Forecast

Advertisements
Track Severe Weather on mobile